createdAt,value
2023-04-27T00:01:36.977Z,9.09
2023-04-27T00:04:10.845Z,9.06
2023-04-27T00:06:43.975Z,9.04
2023-04-27T00:09:17.695Z,9.02
2023-04-27T00:11:51.067Z,9.01
2023-04-27T00:14:26.666Z,8.98
2023-04-27T00:27:36.669Z,8.92
2023-04-27T00:30:12.526Z,8.91
2023-04-27T00:32:45.751Z,8.92
2023-04-27T00:35:19.204Z,8.91
2023-04-27T00:37:52.671Z,8.91
2023-04-27T00:40:32.510Z,8.86
2023-04-27T00:53:38.656Z,8.78
2023-04-27T00:56:19.683Z,8.74
2023-04-27T00:58:53.081Z,8.74
2023-04-27T01:01:26.861Z,8.73
2023-04-27T01:04:00.180Z,8.69
2023-04-27T01:19:30.670Z,8.57
2023-04-27T01:22:03.948Z,8.55
2023-04-27T01:24:39.662Z,8.54
2023-04-27T01:27:13.029Z,8.54
2023-04-27T01:29:46.678Z,8.52
2023-04-27T01:32:20.083Z,8.52
2023-04-27T01:34:53.666Z,8.50
2023-04-27T01:48:05.682Z,8.45
2023-04-27T01:50:38.958Z,8.44
2023-04-27T01:53:14.499Z,8.42
2023-04-27T01:55:48.620Z,8.39
2023-04-27T01:58:21.658Z,8.34
2023-04-27T02:00:55.028Z,8.33
2023-04-27T02:13:45.663Z,8.27
2023-04-27T02:16:25.747Z,8.22
2023-04-27T02:18:59.061Z,8.21
2023-04-27T02:21:32.687Z,8.21
2023-04-27T02:24:06.912Z,8.19
2023-04-27T02:40:22.682Z,8.17
2023-04-27T02:42:55.893Z,8.15
2023-04-27T02:45:29.702Z,8.14
2023-04-27T02:48:03.093Z,8.11
2023-04-27T02:50:36.670Z,8.09
2023-04-27T02:53:10.170Z,8.08
2023-04-27T02:55:51.484Z,8.04
2023-04-27T03:06:06.636Z,8.00
2023-04-27T03:08:46.682Z,8.00
2023-04-27T03:11:22.818Z,7.98
2023-04-27T03:13:56.649Z,7.98
2023-04-27T03:16:32.016Z,7.96
2023-04-27T03:19:05.649Z,7.96
2023-04-27T03:32:52.709Z,7.89
2023-04-27T03:35:26.001Z,7.86
2023-04-27T03:37:59.665Z,7.87
2023-04-27T03:40:32.982Z,7.82
2023-04-27T03:43:06.662Z,7.82
2023-04-27T03:45:41.005Z,7.79
2023-04-27T04:01:58.853Z,7.68
2023-04-27T04:04:34.119Z,7.68
2023-04-27T04:07:09.643Z,7.67
2023-04-27T04:09:44.513Z,7.64
2023-04-27T04:12:17.637Z,7.64
2023-04-27T04:14:51.060Z,7.65
2023-04-27T04:27:41.610Z,7.66
2023-04-27T04:30:22.661Z,7.66
2023-04-27T04:32:56.035Z,7.66
2023-04-27T04:35:29.651Z,7.67
2023-04-27T04:38:03.056Z,7.67
2023-04-27T04:40:36.658Z,7.68
2023-04-27T04:53:48.638Z,7.74
2023-04-27T04:56:23.559Z,7.77
2023-04-27T04:58:56.621Z,7.78
2023-04-27T05:01:32.151Z,7.82
2023-04-27T05:04:06.637Z,7.87
2023-04-27T05:20:43.591Z,8.06
2023-04-27T05:23:23.622Z,8.07
2023-04-27T05:25:56.926Z,8.10
2023-04-27T05:28:30.654Z,8.12
2023-04-27T05:31:03.928Z,8.15
2023-04-27T05:33:37.627Z,8.18
2023-04-27T05:36:12.834Z,8.23
2023-04-27T05:49:00.613Z,8.42
2023-04-27T05:51:42.625Z,8.46
2023-04-27T05:54:16.036Z,8.49
2023-04-27T05:56:49.626Z,8.51
2023-04-27T05:59:22.910Z,8.55
2023-04-27T06:15:38.671Z,8.86
2023-04-27T06:18:12.257Z,8.92
2023-04-27T06:20:45.653Z,8.96
2023-04-27T06:23:18.882Z,9.00
2023-04-27T06:25:52.648Z,9.06
2023-04-27T06:42:29.620Z,9.30
2023-04-27T06:45:10.632Z,9.33
2023-04-27T06:47:43.874Z,9.35
2023-04-27T06:50:17.617Z,9.38
2023-04-27T06:52:50.830Z,9.41
2023-04-27T06:55:24.644Z,9.45
2023-04-27T07:08:36.680Z,9.77
2023-04-27T07:11:09.954Z,9.80
2023-04-27T07:13:44.445Z,9.86
2023-04-27T07:16:19.094Z,9.94
2023-04-27T07:18:52.647Z,9.99
2023-04-27T07:21:25.971Z,10.05
2023-04-27T07:34:16.595Z,10.29
2023-04-27T07:36:57.637Z,10.33
2023-04-27T07:39:30.859Z,10.37
2023-04-27T07:42:09.626Z,10.38
2023-04-27T07:44:42.946Z,10.40
2023-04-27T07:47:16.610Z,10.41
2023-04-27T07:49:51.792Z,10.42
2023-04-27T08:02:39.750Z,10.56
2023-04-27T08:05:22.109Z,10.61
2023-04-27T08:07:56.418Z,10.64
2023-04-27T08:10:30.596Z,10.67
2023-04-27T08:13:04.036Z,10.71
2023-04-27T08:15:38.412Z,10.73
2023-04-27T08:28:50.607Z,10.73
2023-04-27T08:31:25.274Z,10.76
2023-04-27T08:34:00.607Z,10.76
2023-04-27T08:36:33.833Z,10.85
2023-04-27T08:39:07.747Z,10.87
2023-04-27T08:55:50.580Z,10.94
2023-04-27T08:58:42.614Z,11.03
2023-04-27T09:01:16.004Z,11.07
2023-04-27T09:03:49.709Z,11.07
2023-04-27T09:06:30.816Z,11.06
2023-04-27T09:09:11.824Z,11.05
2023-04-27T09:22:24.614Z,11.09
2023-04-27T09:24:57.880Z,11.12
2023-04-27T09:27:31.617Z,11.15
2023-04-27T09:30:13.513Z,11.16
2023-04-27T09:33:00.620Z,11.15
2023-04-27T09:35:33.916Z,11.17
2023-04-27T09:48:24.636Z,11.24
2023-04-27T09:51:04.626Z,11.24
2023-04-27T09:53:48.581Z,11.25
2023-04-27T09:56:47.610Z,11.27
2023-04-27T09:59:46.089Z,11.29
2023-04-27T10:16:21.870Z,11.54
2023-04-27T10:18:56.127Z,11.57
2023-04-27T10:21:29.606Z,11.60
2023-04-27T10:24:08.561Z,11.63
2023-04-27T10:26:53.591Z,11.70
2023-04-27T10:29:36.016Z,11.78
2023-04-27T10:42:35.582Z,12.36
2023-04-27T10:45:17.589Z,12.48
2023-04-27T10:47:59.497Z,12.57
2023-04-27T10:50:40.617Z,12.61
2023-04-27T10:53:14.225Z,12.71
2023-04-27T10:55:47.621Z,12.77
2023-04-27T11:08:59.628Z,12.92
2023-04-27T11:11:32.932Z,12.96
2023-04-27T11:14:06.646Z,13.01
2023-04-27T11:16:46.658Z,13.10
2023-04-27T11:19:26.848Z,13.20
2023-04-27T11:36:11.575Z,13.37
2023-04-27T11:38:51.626Z,13.37
2023-04-27T11:41:33.450Z,13.36
2023-04-27T11:44:23.601Z,13.41
2023-04-27T11:46:56.889Z,13.45
2023-04-27T11:49:32.581Z,13.48
2023-04-27T12:02:44.837Z,13.63
2023-04-27T12:05:19.038Z,13.76
2023-04-27T12:07:52.614Z,13.84
2023-04-27T12:10:26.010Z,13.86
2023-04-27T12:12:59.596Z,13.86
2023-04-27T12:15:32.910Z,13.87
2023-04-27T12:28:23.565Z,14.12
2023-04-27T12:31:03.664Z,14.14
2023-04-27T12:33:36.869Z,14.16
2023-04-27T12:36:10.616Z,14.19
2023-04-27T12:38:44.010Z,14.27
2023-04-27T12:41:17.619Z,14.30
2023-04-27T12:54:41.612Z,14.54
2023-04-27T12:57:14.818Z,14.65
2023-04-27T12:59:48.614Z,14.71
2023-04-27T13:02:22.221Z,14.71
2023-04-27T13:04:57.325Z,14.69
2023-04-27T13:07:30.878Z,14.68
2023-04-27T13:10:06.601Z,14.66
2023-04-27T13:23:16.627Z,14.67
2023-04-27T13:25:51.886Z,14.68
2023-04-27T13:28:27.185Z,14.75
2023-04-27T13:31:00.874Z,14.78
2023-04-27T13:33:34.608Z,14.79
2023-04-27T13:36:08.610Z,14.83
2023-04-27T13:48:58.550Z,15.12
2023-04-27T13:51:38.601Z,15.08
2023-04-27T13:54:12.040Z,15.06
2023-04-27T13:56:45.591Z,15.02
2023-04-27T13:59:18.923Z,15.03
2023-04-27T14:01:52.576Z,15.11
2023-04-27T14:15:04.598Z,15.73
2023-04-27T14:17:38.010Z,15.82
2023-04-27T14:20:13.587Z,15.92
2023-04-27T14:22:48.464Z,16.01
2023-04-27T14:25:21.585Z,16.11
2023-04-27T14:27:54.899Z,16.18
2023-04-27T14:30:31.584Z,16.19
2023-04-27T14:43:46.589Z,16.32
2023-04-27T14:46:22.141Z,16.36
2023-04-27T14:48:55.617Z,16.38
2023-04-27T14:51:28.891Z,16.37
2023-04-27T14:54:02.602Z,16.32
2023-04-27T14:56:35.854Z,16.25
2023-04-27T15:09:26.574Z,16.33
2023-04-27T15:12:06.599Z,16.30
2023-04-27T15:14:39.849Z,16.27
2023-04-27T15:17:13.596Z,16.30
2023-04-27T15:19:46.984Z,16.35
2023-04-27T15:22:20.627Z,16.38
2023-04-27T15:35:32.683Z,16.46
2023-04-27T15:38:08.674Z,16.44
2023-04-27T15:40:42.607Z,16.45
2023-04-27T15:43:15.850Z,16.46
2023-04-27T15:45:49.603Z,16.49
2023-04-27T15:48:22.849Z,16.50
2023-04-27T15:50:58.593Z,16.56
2023-04-27T16:04:08.608Z,16.68
2023-04-27T16:06:48.649Z,16.72
2023-04-27T16:09:21.631Z,16.79
2023-04-27T16:11:54.940Z,16.84
2023-04-27T16:14:28.598Z,16.85
2023-04-27T16:17:02.030Z,16.91
2023-04-27T16:29:52.550Z,17.29
2023-04-27T16:32:35.013Z,17.41
2023-04-27T16:35:09.525Z,17.59
2023-04-27T16:37:44.203Z,17.79
2023-04-27T16:40:18.019Z,18.09
2023-04-27T16:42:51.585Z,18.41
2023-04-27T16:56:11.575Z,20.31
2023-04-27T16:58:44.795Z,20.57
2023-04-27T17:01:18.656Z,20.75
2023-04-27T17:03:52.121Z,20.93
2023-04-27T17:06:40.617Z,21.08
2023-04-27T17:09:14.182Z,21.25
2023-04-27T17:11:49.594Z,21.29
2023-04-27T17:22:06.550Z,19.66
2023-04-27T17:24:46.604Z,18.83
2023-04-27T17:27:22.272Z,18.42
2023-04-27T17:29:57.999Z,18.22
2023-04-27T17:32:31.821Z,18.22
2023-04-27T17:35:05.573Z,18.18
2023-04-27T17:37:38.940Z,18.17
2023-04-27T17:50:30.605Z,16.49
2023-04-27T17:53:10.598Z,16.19
2023-04-27T17:55:43.862Z,15.91
2023-04-27T17:58:17.608Z,15.71
2023-04-27T18:00:50.955Z,15.47
2023-04-27T18:17:06.638Z,14.66
2023-04-27T18:19:40.086Z,14.58
2023-04-27T18:22:13.598Z,14.50
2023-04-27T18:24:46.836Z,14.42
2023-04-27T18:27:20.580Z,14.34
2023-04-27T18:29:53.942Z,14.26
2023-04-27T18:32:29.678Z,14.16
2023-04-27T18:42:26.577Z,13.88
2023-04-27T18:45:06.845Z,13.82
2023-04-27T18:47:41.806Z,13.76
2023-04-27T18:50:16.613Z,13.72
2023-04-27T18:52:49.988Z,13.63
2023-04-27T18:55:23.600Z,13.60
2023-04-27T18:57:56.836Z,13.58
2023-04-27T19:10:47.569Z,13.62
2023-04-27T19:13:27.595Z,13.61
2023-04-27T19:16:00.852Z,13.59
2023-04-27T19:18:34.652Z,13.54
2023-04-27T19:21:09.961Z,13.51
2023-04-27T19:37:25.582Z,13.34
2023-04-27T19:39:58.870Z,13.30
2023-04-27T19:42:32.587Z,13.28
2023-04-27T19:45:07.488Z,13.24
2023-04-27T19:47:41.644Z,13.21
2023-04-27T19:50:15.063Z,13.19
2023-04-27T19:52:50.592Z,13.18
2023-04-27T20:02:40.770Z,13.15
2023-04-27T20:05:21.741Z,13.14
2023-04-27T20:07:57.863Z,13.14
2023-04-27T20:10:31.578Z,13.13
2023-04-27T20:13:04.971Z,13.10
2023-04-27T20:15:38.584Z,13.05
2023-04-27T20:29:25.601Z,12.95
2023-04-27T20:31:58.852Z,12.93
2023-04-27T20:34:32.605Z,12.91
2023-04-27T20:37:05.825Z,12.90
2023-04-27T20:39:39.605Z,12.88
2023-04-27T20:42:12.843Z,12.85
2023-04-27T20:58:28.571Z,12.64
2023-04-27T21:01:01.872Z,12.62
2023-04-27T21:03:35.770Z,12.59
2023-04-27T21:06:08.934Z,12.58
2023-04-27T21:08:42.602Z,12.54
2023-04-27T21:11:18.052Z,12.51
2023-04-27T21:24:08.625Z,12.34
2023-04-27T21:26:48.581Z,12.31
2023-04-27T21:29:21.806Z,12.28
2023-04-27T21:31:55.603Z,12.27
2023-04-27T21:34:29.140Z,12.24
2023-04-27T21:37:02.607Z,12.22
2023-04-27T21:50:16.568Z,12.18
2023-04-27T21:52:49.846Z,12.15
2023-04-27T21:55:24.383Z,12.12
2023-04-27T21:57:57.936Z,12.09
2023-04-27T22:00:31.572Z,12.07
2023-04-27T22:17:15.557Z,11.95
2023-04-27T22:19:55.601Z,11.94
2023-04-27T22:22:28.818Z,11.94
2023-04-27T22:25:02.586Z,11.93
2023-04-27T22:27:44.612Z,11.93
2023-04-27T22:30:25.594Z,11.90
2023-04-27T22:33:01.809Z,11.87
2023-04-27T22:43:10.610Z,11.80
2023-04-27T22:45:43.960Z,11.77
2023-04-27T22:48:19.583Z,11.76
2023-04-27T22:50:52.812Z,11.73
2023-04-27T22:53:26.593Z,11.73
2023-04-27T22:55:59.809Z,11.69
2023-04-27T23:12:14.589Z,11.59
2023-04-27T23:14:47.845Z,11.57
2023-04-27T23:17:21.609Z,11.56
2023-04-27T23:19:54.960Z,11.56
2023-04-27T23:22:28.634Z,11.53
2023-04-27T23:39:05.546Z,11.46
2023-04-27T23:41:45.582Z,11.43
2023-04-27T23:44:18.862Z,11.40
2023-04-27T23:46:52.556Z,11.40
2023-04-27T23:49:25.832Z,11.38
2023-04-27T23:51:59.577Z,11.36
